createdAt,value
2019-03-26T00:00:42.456Z,11.22
2019-03-26T00:06:04.617Z,10.18
2019-03-26T00:11:26.501Z,11.80
2019-03-26T00:16:48.856Z,10.55
2019-03-26T00:22:11.140Z,10.03
2019-03-26T00:27:33.143Z,9.20
2019-03-26T00:32:57.051Z,8.43
2019-03-26T00:38:19.162Z,11.25
2019-03-26T00:43:41.373Z,10.82
2019-03-26T00:49:03.719Z,13.48
2019-03-26T00:54:25.989Z,7.72
2019-03-26T00:59:48.489Z,8.68
2019-03-26T01:05:10.778Z,8.68
2019-03-26T01:10:33.024Z,12.30
2019-03-26T01:15:55.348Z,10.20
2019-03-26T01:21:17.366Z,10.05
2019-03-26T01:26:40.054Z,9.90
2019-03-26T01:32:02.186Z,8.33
2019-03-26T01:37:24.630Z,8.03
2019-03-26T01:42:48.066Z,8.78
2019-03-26T01:48:09.975Z,10.75
2019-03-26T01:53:32.349Z,9.38
2019-03-26T01:58:54.820Z,8.93
2019-03-26T02:04:17.632Z,9.53
2019-03-26T02:09:39.750Z,9.80
2019-03-26T02:15:02.408Z,9.43
2019-03-26T02:20:24.347Z,9.08
2019-03-26T02:25:46.442Z,9.13
2019-03-26T02:31:08.276Z,8.93
2019-03-26T02:36:30.221Z,9.73
2019-03-26T02:41:52.627Z,9.15
2019-03-26T02:47:14.769Z,9.43
2019-03-26T02:52:36.982Z,7.97
2019-03-26T02:57:58.999Z,10.10
2019-03-26T03:03:29.645Z,10.37
2019-03-26T03:08:51.705Z,8.23
2019-03-26T03:14:14.008Z,7.90
2019-03-26T03:19:35.824Z,12.13
2019-03-26T03:24:58.497Z,12.28
2019-03-26T03:30:20.809Z,9.63
2019-03-26T03:35:51.880Z,9.83
2019-03-26T03:41:07.710Z,8.88
2019-03-26T03:46:30.385Z,8.27
2019-03-26T03:51:53.689Z,7.83
2019-03-26T03:57:17.325Z,10.50
2019-03-26T04:02:39.369Z,11.00
2019-03-26T04:08:01.551Z,8.58
2019-03-26T04:13:23.800Z,13.62
2019-03-26T04:18:45.975Z,7.72
2019-03-26T04:24:07.897Z,9.23
2019-03-26T04:29:30.389Z,9.23
2019-03-26T04:34:52.583Z,15.70
2019-03-26T04:40:14.897Z,11.60
2019-03-26T04:45:37.365Z,12.63
2019-03-26T04:50:59.064Z,10.88
2019-03-26T04:56:22.647Z,12.50
2019-03-26T05:01:45.081Z,11.10
2019-03-26T05:07:06.968Z,13.75
2019-03-26T05:12:29.511Z,14.38
2019-03-26T05:17:51.781Z,14.45
2019-03-26T05:23:14.649Z,16.77
2019-03-26T05:28:36.858Z,17.02
2019-03-26T05:33:58.875Z,16.95
2019-03-26T05:39:23.195Z,20.40
2019-03-26T05:44:45.166Z,25.12
2019-03-26T05:50:09.352Z,23.73
2019-03-26T05:55:31.909Z,31.23
2019-03-26T06:00:54.114Z,33.13
2019-03-26T06:06:15.948Z,32.50
2019-03-26T06:11:38.132Z,24.45
2019-03-26T06:17:00.226Z,27.50
2019-03-26T06:22:22.368Z,27.15
2019-03-26T06:27:44.285Z,26.80
2019-03-26T06:33:06.254Z,24.57
2019-03-26T06:38:27.954Z,26.20
2019-03-26T06:43:49.762Z,21.42
2019-03-26T06:49:11.752Z,30.00
2019-03-26T06:54:34.012Z,26.68
2019-03-26T06:59:56.921Z,24.60
2019-03-26T07:05:18.982Z,26.62
2019-03-26T07:10:41.010Z,30.62
2019-03-26T07:16:03.355Z,27.32
2019-03-26T07:21:25.345Z,27.10
2019-03-26T07:26:47.855Z,32.35
2019-03-26T07:32:09.853Z,26.48
2019-03-26T07:37:44.197Z,29.05
2019-03-26T07:42:55.887Z,28.12
2019-03-26T07:48:17.851Z,29.30
2019-03-26T07:53:39.993Z,31.27
2019-03-26T07:59:02.432Z,24.85
2019-03-26T08:04:24.534Z,29.25
2019-03-26T08:09:46.893Z,23.77
2019-03-26T08:15:09.209Z,19.77
2019-03-26T08:20:32.581Z,19.25
2019-03-26T08:25:55.025Z,19.55
2019-03-26T08:31:17.412Z,18.20
2019-03-26T08:36:39.524Z,20.20
2019-03-26T08:42:01.249Z,18.27
2019-03-26T08:47:23.939Z,20.30
2019-03-26T08:52:46.045Z,21.82
2019-03-26T08:58:08.329Z,20.25
2019-03-26T09:03:30.605Z,18.90
2019-03-26T09:08:53.272Z,19.62
2019-03-26T09:14:15.343Z,20.45
2019-03-26T09:19:37.716Z,19.62
2019-03-26T09:24:59.822Z,20.05
2019-03-26T09:30:22.315Z,19.62
2019-03-26T09:35:44.565Z,20.92
2019-03-26T09:41:06.875Z,21.97
2019-03-26T09:46:29.497Z,18.77
2019-03-26T09:51:51.744Z,19.50
2019-03-26T09:57:13.864Z,19.10
2019-03-26T10:02:36.320Z,20.00
2019-03-26T10:07:59.110Z,18.48
2019-03-26T10:13:21.452Z,17.55
2019-03-26T10:18:43.485Z,17.98
2019-03-26T10:24:05.494Z,17.57
2019-03-26T10:29:30.501Z,16.10
2019-03-26T10:34:52.043Z,18.75
2019-03-26T10:40:22.832Z,19.10
2019-03-26T10:45:45.294Z,17.75
2019-03-26T10:51:07.305Z,18.23
2019-03-26T10:56:32.510Z,19.02
2019-03-26T11:01:53.854Z,17.42
2019-03-26T11:07:15.584Z,20.62
2019-03-26T11:12:37.642Z,17.48
2019-03-26T11:17:59.744Z,17.40
2019-03-26T11:23:21.947Z,18.87
2019-03-26T11:28:44.874Z,15.28
2019-03-26T11:34:07.177Z,16.27
2019-03-26T11:39:34.719Z,20.90
2019-03-26T11:44:59.391Z,20.43
2019-03-26T11:50:21.866Z,15.72
2019-03-26T11:55:43.893Z,17.77
2019-03-26T12:01:05.928Z,15.05
2019-03-26T12:06:28.016Z,17.52
2019-03-26T12:11:50.014Z,17.42
2019-03-26T12:17:14.787Z,20.77
2019-03-26T12:22:36.399Z,15.98
2019-03-26T12:27:58.430Z,17.62
2019-03-26T12:33:20.822Z,16.52
2019-03-26T12:38:44.186Z,16.60
2019-03-26T12:44:06.706Z,27.58
2019-03-26T12:49:28.892Z,15.88
2019-03-26T12:54:51.330Z,15.93
2019-03-26T13:00:13.882Z,15.38
2019-03-26T13:05:36.927Z,16.42
2019-03-26T13:11:00.899Z,16.15
2019-03-26T13:16:23.487Z,17.65
2019-03-26T13:21:47.838Z,15.85
2019-03-26T13:27:10.304Z,15.00
2019-03-26T13:32:33.151Z,14.73
2019-03-26T13:37:55.526Z,20.40
2019-03-26T13:43:17.751Z,21.57
2019-03-26T13:48:39.975Z,16.27
2019-03-26T13:54:02.141Z,19.07
2019-03-26T13:59:24.320Z,16.52
2019-03-26T14:04:46.599Z,16.67
2019-03-26T14:10:11.891Z,18.45
2019-03-26T14:15:34.210Z,15.80
2019-03-26T14:20:56.111Z,18.70
2019-03-26T14:26:18.664Z,19.23
2019-03-26T14:31:40.795Z,24.65
2019-03-26T14:37:03.203Z,22.73
2019-03-26T14:42:25.302Z,22.13
2019-03-26T14:47:47.778Z,24.43
2019-03-26T14:53:10.058Z,22.10
2019-03-26T14:58:31.866Z,22.75
2019-03-26T15:03:54.549Z,20.50
2019-03-26T15:09:17.055Z,17.25
2019-03-26T15:14:39.497Z,22.95
2019-03-26T15:20:02.058Z,26.80
2019-03-26T15:25:26.936Z,19.73
2019-03-26T15:30:49.506Z,24.63
2019-03-26T15:36:11.596Z,22.52
2019-03-26T15:41:33.842Z,23.73
2019-03-26T15:46:55.913Z,22.98
2019-03-26T15:52:17.879Z,23.75
2019-03-26T15:57:40.459Z,22.85
2019-03-26T16:03:03.156Z,24.45
2019-03-26T16:08:25.288Z,22.82
2019-03-26T16:13:47.692Z,25.45
2019-03-26T16:19:10.080Z,22.35
2019-03-26T16:24:32.932Z,49.77
2019-03-26T16:29:54.817Z,41.08
2019-03-26T16:35:17.263Z,22.10
2019-03-26T16:40:42.552Z,25.45
2019-03-26T16:46:04.945Z,25.60
2019-03-26T16:51:35.168Z,25.20
2019-03-26T16:56:58.176Z,25.97
2019-03-26T17:02:20.779Z,29.70
2019-03-26T17:07:44.881Z,27.48
2019-03-26T17:13:07.247Z,27.58
2019-03-26T17:18:29.819Z,28.62
2019-03-26T17:23:52.547Z,31.80
2019-03-26T17:29:15.178Z,26.90
2019-03-26T17:34:37.025Z,21.40
2019-03-26T17:39:58.955Z,26.70
2019-03-26T17:45:21.965Z,25.30
2019-03-26T17:50:48.840Z,22.17
2019-03-26T17:56:12.467Z,24.15
2019-03-26T18:01:39.836Z,23.70
2019-03-26T18:07:05.224Z,25.95
2019-03-26T18:12:31.195Z,25.60
2019-03-26T18:17:50.711Z,24.07
2019-03-26T18:23:13.596Z,22.05
2019-03-26T18:28:35.912Z,25.37
2019-03-26T18:33:59.981Z,25.20
2019-03-26T18:39:23.187Z,27.87
2019-03-26T18:44:46.312Z,33.35
2019-03-26T18:50:08.699Z,31.30
2019-03-26T18:55:33.934Z,30.08
2019-03-26T19:00:57.164Z,32.70
2019-03-26T19:06:21.436Z,36.35
2019-03-26T19:11:49.924Z,33.42
2019-03-26T19:17:22.286Z,37.67
2019-03-26T19:22:48.436Z,36.00
2019-03-26T19:28:16.406Z,36.42
2019-03-26T19:33:47.019Z,37.05
2019-03-26T19:39:09.209Z,35.00
2019-03-26T19:44:37.104Z,35.20
2019-03-26T19:50:02.943Z,33.78
2019-03-26T19:55:28.441Z,33.90
2019-03-26T20:00:50.921Z,30.08
2019-03-26T20:06:16.969Z,32.67
2019-03-26T20:11:44.608Z,30.20
2019-03-26T20:17:11.742Z,30.25
2019-03-26T20:22:34.672Z,32.38
2019-03-26T20:28:01.088Z,28.55
2019-03-26T20:33:34.589Z,31.23
2019-03-26T20:39:02.676Z,30.82
2019-03-26T20:44:27.491Z,28.85
2019-03-26T20:49:50.858Z,31.82
2019-03-26T20:55:18.943Z,31.30
2019-03-26T21:00:46.886Z,32.17
2019-03-26T21:06:09.762Z,29.92
2019-03-26T21:11:31.839Z,28.27
2019-03-26T21:16:56.091Z,29.32
2019-03-26T21:22:19.951Z,30.15
2019-03-26T21:27:44.031Z,26.60
2019-03-26T21:33:09.814Z,25.32
2019-03-26T21:38:32.545Z,30.82
2019-03-26T21:44:04.593Z,30.60
2019-03-26T21:49:25.371Z,24.40
2019-03-26T21:54:49.378Z,21.02
2019-03-26T22:00:12.915Z,27.02
2019-03-26T22:05:36.407Z,25.62
2019-03-26T22:10:59.242Z,26.07
2019-03-26T22:16:22.924Z,25.90
2019-03-26T22:21:47.040Z,20.55
2019-03-26T22:27:10.871Z,23.92
2019-03-26T22:32:33.853Z,24.40
2019-03-26T22:37:59.793Z,20.20
2019-03-26T22:43:22.991Z,19.23
2019-03-26T22:48:45.862Z,19.67
2019-03-26T22:54:09.649Z,19.23
2019-03-26T22:59:34.120Z,19.17
2019-03-26T23:04:56.322Z,16.02
2019-03-26T23:10:21.083Z,16.62
2019-03-26T23:15:44.835Z,17.20
2019-03-26T23:21:08.219Z,17.17
2019-03-26T23:26:31.234Z,19.82
2019-03-26T23:31:53.899Z,19.48
2019-03-26T23:37:16.930Z,17.80
2019-03-26T23:42:38.761Z,16.60
2019-03-26T23:48:02.532Z,12.13
2019-03-26T23:53:26.354Z,13.83
2019-03-26T23:58:49.501Z,15.85
